D/T METAR WX W/DIR W/SPE G/SPE TEMP DEWP
22/01/20 08:20 EGMD 220820Z 36006KT 5000 BR BKN012 04/04 Q1038 BR N (360°) 6.9mph 4°C 4°C
22/01/20 07:50 EGMD 220750Z AUTO 34006KT 5000 BR OVC011/// 03/03 Q1038 BR NNW (340°) 6.9mph 3°C 3°C
22/01/20 07:20 EGMD 220720Z AUTO 35004KT 6000 OVC011/// 03/03 Q1037 N (350°) 4.6mph 3°C 3°C
22/01/20 06:50 EGMD 220650Z AUTO 02006KT 9999 OVC011/// 04/04 Q1037 NNE (20°) 6.9mph 4°C 4°C
22/01/20 06:20 EGMD 220620Z AUTO 36008KT 8000 OVC011/// 03/03 Q1037 N (360°) 9.2mph 3°C 3°C
22/01/20 05:50 EGMD 220550Z AUTO 34004KT 7000 OVC012/// 02/02 Q1037 NNW (340°) 4.6mph 2°C 2°C
22/01/20 05:20 EGMD 220520Z AUTO 34005KT 7000 OVC012/// 02/02 Q1037 NNW (340°) 5.8mph 2°C 2°C
22/01/20 04:50 EGMD 220450Z AUTO 34003KT 5000 BR OVC012/// 01/01 Q1037 BR NNW (340°) 3.5mph 1°C 1°C
22/01/20 03:50 EGMD 220350Z AUTO VRB03KT 5000 BR OVC015/// 00/00 Q1038 BR N (0°) 3.5mph 0°C 0°C
22/01/20 03:20 EGMD 220320Z AUTO 33006KT 4200 BR BKN015/// 00/00 Q1038 BR NNW (330°) 6.9mph 0°C 0°C
22/01/20 02:50 EGMD 220250Z AUTO 33007KT 4700 BR SCT015/// 00/00 Q1038 BR NNW (330°) 8.1mph 0°C 0°C
22/01/20 02:20 EGMD 220220Z AUTO 31004KT 290V350 4100 BR BKN016/// 00/00 Q1038 BR NW (310°) 4.6mph 0°C 0°C
22/01/20 01:50 EGMD 220150Z AUTO 32006KT 3900 BR OVC017/// 00/00 Q1039 BR NW (320°) 6.9mph 0°C 0°C
22/01/20 01:20 EGMD 220120Z AUTO 30004KT 4800 BR BKN018/// 00/00 Q1038 BR WNW (300°) 4.6mph 0°C 0°C
22/01/20 00:50 EGMD 220050Z AUTO 32006KT 2800 BR SCT020/// M00/M00 Q1039 BR NW (320°) 6.9mph 0°C 0°C
22/01/20 00:20 EGMD 220020Z AUTO 30006KT 4600 BR NCD 00/00 Q1039 BR WNW (300°) 6.9mph 0°C 0°C
21/01/20 23:50 EGMD 212350Z AUTO 31005KT 4200 BR NCD M00/M00 Q1040 BR NW (310°) 5.8mph 0°C 0°C
21/01/20 23:20 EGMD 212320Z AUTO 32006KT 2300 BR NCD M00/M00 Q1039 BR NW (320°) 6.9mph 0°C 0°C
21/01/20 22:50 EGMD 212250Z AUTO 31005KT 2400 BR NCD M00/M00 Q1039 BR NW (310°) 5.8mph 0°C 0°C
21/01/20 22:20 EGMD 212220Z AUTO 30003KT 2300 BR FEW013/// M00/M00 Q1039 BR WNW (300°) 3.5mph 0°C 0°C
21/01/20 21:20 EGMD 212120Z AUTO 33003KT 0250 FG OVC001/// 00/00 Q1040 FG NNW (330°) 3.5mph 0°C 0°C
21/01/20 20:50 EGMD 212050Z AUTO 34004KT 0200 FZFG BKN001/// OVC005/// M00/M00 Q1040 FZFG NNW (340°) 4.6mph 0°C 0°C
21/01/20 20:20 EGMD 212020Z AUTO 33004KT 0100 FZFG OVC001/// M00/M00 Q1040 FZFG NNW (330°) 4.6mph 0°C 0°C
21/01/20 19:50 EGMD 211950Z AUTO VRB01KT 2500 BR BKN001/// OVC008/// M00/M01 Q1039 BR N (0°) 1.2mph 0°C -1°C
21/01/20 19:20 EGMD 211920Z AUTO 29002KT 6000 FEW008/// M00/M00 Q1040 WNW (290°) 2.3mph 0°C 0°C
21/01/20 18:50 EGMD 211850Z AUTO 30001KT 3500 BR FEW008/// 01/01 Q1040 BR WNW (300°) 1.2mph 1°C 1°C
21/01/20 18:20 EGMD 211820Z 00000KT 0500 FG NSC 01/01 Q1040 FG N (0°) 1°C 1°C
21/01/20 17:50 EGMD 211750Z 00000KT 8000 MIFG NSC 02/01 Q1040 MIFG N (0°) 2°C 1°C
21/01/20 17:20 EGMD 211720Z VRB02KT 8000 MIFG NSC 03/02 Q1040 MIFG N (0°) 2.3mph 3°C 2°C
21/01/20 16:20 EGMD 211620Z 23002KT 9999 MIFG FEW015 06/04 Q1040 MIFG SW (230°) 2.3mph 6°C 4°C
21/01/20 15:50 EGMD 211550Z 22003KT 9999 FEW015 07/05 Q1040 SW (220°) 3.5mph 7°C 5°C
21/01/20 15:20 EGMD 211520Z 22005KT 9999 FEW016 07/05 Q1041 SW (220°) 5.8mph 7°C 5°C
21/01/20 14:50 EGMD 211450Z 22004KT 9999 FEW010 08/05 Q1041 SW (220°) 4.6mph 8°C 5°C
21/01/20 14:20 EGMD 211420Z 22004KT 9999 FEW010 08/05 Q1041 SW (220°) 4.6mph 8°C 5°C
21/01/20 13:50 EGMD 211350Z VRB03KT 9999 FEW011 08/05 Q1041 N (0°) 3.5mph 8°C 5°C
21/01/20 13:20 EGMD 211320Z 28004KT 9999 FEW009 07/04 Q1041 W (280°) 4.6mph 7°C 4°C
21/01/20 12:50 EGMD 211250Z VRB02KT 9999 FEW012 07/05 Q1041 N (0°) 2.3mph 7°C 5°C
21/01/20 12:20 EGMD 211220Z 32004KT 9999 SCT012 06/04 Q1042 NW (320°) 4.6mph 6°C 4°C
21/01/20 11:20 EGMD 211120Z 33004KT 9999 FEW013 05/04 Q1043 NNW (330°) 4.6mph 5°C 4°C
21/01/20 10:20 EGMD 211020Z 32004KT CAVOK 03/02 Q1043 NW (320°) 4.6mph 3°C 2°C
21/01/20 09:20 EGMD 210920Z 32003KT CAVOK 01/00 Q1043 NW (320°) 3.5mph 1°C 0°C
21/01/20 08:50 EGMD 210850Z 31005KT CAVOK 00/M00 Q1043 NW (310°) 5.8mph 0°C 0°C
21/01/20 08:20 EGMD 210820Z 29003KT CAVOK M00/M00 Q1042 WNW (290°) 3.5mph 0°C 0°C
21/01/20 07:50 EGMD 210750Z AUTO 30004KT 9999 NCD M00/M01 Q1042 WNW (300°) 4.6mph 0°C -1°C
21/01/20 07:20 EGMD 210720Z AUTO 31004KT 9999 NCD M00/M00 Q1042 NW (310°) 4.6mph 0°C 0°C
21/01/20 06:50 EGMD 210650Z AUTO 32008KT 9999 NCD M00/M00 Q1042 NW (320°) 9.2mph 0°C 0°C
21/01/20 06:20 EGMD 210620Z AUTO 31006KT 9999 NCD M00/M01 Q1042 NW (310°) 6.9mph 0°C -1°C
21/01/20 05:50 EGMD 210550Z AUTO 32006KT 9999 NCD M01/M01 Q1042 NW (320°) 6.9mph -1°C -1°C